createdAt,value
2022-11-17T00:01:17.430Z,42.35
2022-11-17T00:03:44.016Z,42.39
2022-11-17T00:06:10.578Z,42.43
2022-11-17T00:08:37.196Z,42.47
2022-11-17T00:11:04.122Z,42.48
2022-11-17T00:13:49.411Z,42.55
2022-11-17T00:16:16.664Z,42.57
2022-11-17T00:19:02.014Z,42.62
2022-11-17T00:21:28.993Z,42.61
2022-11-17T00:23:55.656Z,42.71
2022-11-17T00:26:23.854Z,42.69
2022-11-17T00:28:58.089Z,42.71
2022-11-17T00:31:43.998Z,42.70
2022-11-17T00:34:15.479Z,42.66
2022-11-17T00:36:47.264Z,42.76
2022-11-17T00:39:14.446Z,42.77
2022-11-17T00:41:41.072Z,42.81
2022-11-17T00:44:07.720Z,42.83
2022-11-17T00:46:35.078Z,42.87
2022-11-17T00:49:02.123Z,42.90
2022-11-17T00:51:28.845Z,42.87
2022-11-17T00:53:55.501Z,42.92
2022-11-17T00:56:22.069Z,42.92
2022-11-17T00:58:48.622Z,42.96
2022-11-17T01:01:15.362Z,42.94
2022-11-17T01:03:41.965Z,42.95
2022-11-17T01:06:18.356Z,43.01
2022-11-17T01:08:44.925Z,42.96
2022-11-17T01:11:15.995Z,43.01
2022-11-17T01:13:43.059Z,43.05
2022-11-17T01:16:29.650Z,43.05
2022-11-17T01:18:56.312Z,42.99
2022-11-17T01:21:24.389Z,43.05
2022-11-17T01:23:52.427Z,43.06
2022-11-17T01:26:20.598Z,43.06
2022-11-17T01:28:47.751Z,43.11
2022-11-17T01:31:19.139Z,43.17
2022-11-17T01:33:46.043Z,43.11
2022-11-17T01:36:16.769Z,43.16
2022-11-17T01:38:43.337Z,43.08
2022-11-17T01:41:14.152Z,43.04
2022-11-17T01:43:45.927Z,43.12
2022-11-17T01:46:23.329Z,43.15
2022-11-17T01:48:49.874Z,43.17
2022-11-17T01:51:16.468Z,43.23
2022-11-17T01:53:45.195Z,43.21
2022-11-17T01:56:15.136Z,43.17
2022-11-17T01:58:43.610Z,43.19
2022-11-17T02:01:10.233Z,43.20
2022-11-17T02:03:37.152Z,43.19
2022-11-17T02:06:06.480Z,43.29
2022-11-17T02:08:33.106Z,43.27
2022-11-17T02:11:01.083Z,43.30
2022-11-17T02:13:27.633Z,43.25
2022-11-17T02:15:54.211Z,43.30
2022-11-17T02:18:20.907Z,43.23
2022-11-17T02:20:51.859Z,43.25
2022-11-17T02:23:43.164Z,43.31
2022-11-17T02:26:45.279Z,43.38
2022-11-17T02:29:35.805Z,43.29
2022-11-17T02:32:07.907Z,43.20
2022-11-17T02:34:44.810Z,43.31
2022-11-17T02:37:19.988Z,43.34
2022-11-17T02:39:51.342Z,43.36
2022-11-17T02:43:00.504Z,43.28
2022-11-17T02:45:49.865Z,43.28
2022-11-17T02:48:19.967Z,43.34
2022-11-17T02:50:46.683Z,43.31
2022-11-17T02:53:13.651Z,43.30
2022-11-17T02:55:40.249Z,43.39
2022-11-17T02:58:12.762Z,43.29
2022-11-17T03:00:44.171Z,43.37
2022-11-17T03:03:17.265Z,43.22
2022-11-17T03:06:09.716Z,43.22
2022-11-17T03:08:46.399Z,43.37
2022-11-17T03:11:13.013Z,43.27
2022-11-17T03:14:07.767Z,43.31
2022-11-17T03:16:37.729Z,43.25
2022-11-17T03:19:06.689Z,43.32
2022-11-17T03:21:46.676Z,43.38
2022-11-17T03:24:22.130Z,43.37
2022-11-17T03:26:53.726Z,43.28
2022-11-17T03:29:21.533Z,43.36
2022-11-17T03:31:48.496Z,43.41
2022-11-17T03:34:16.841Z,43.34
2022-11-17T03:36:47.506Z,43.40
2022-11-17T03:39:30.711Z,43.44
2022-11-17T03:41:59.969Z,43.42
2022-11-17T03:44:26.957Z,43.40
2022-11-17T03:46:54.622Z,43.28
2022-11-17T03:49:41.572Z,42.68
2022-11-17T03:52:08.169Z,41.58
2022-11-17T03:54:35.445Z,40.34
2022-11-17T03:57:33.834Z,39.32
2022-11-17T04:00:07.315Z,37.37
2022-11-17T04:02:33.867Z,33.81
2022-11-17T04:05:06.238Z,30.80
2022-11-17T04:07:34.210Z,28.46
2022-11-17T04:10:00.838Z,26.95
2022-11-17T04:12:46.301Z,26.26
2022-11-17T04:15:31.692Z,26.08
2022-11-17T04:17:58.419Z,25.96
2022-11-17T04:20:25.464Z,25.82
2022-11-17T04:23:07.197Z,25.74
2022-11-17T04:25:59.213Z,25.67
2022-11-17T04:28:38.649Z,25.59
2022-11-17T04:31:21.235Z,25.50
2022-11-17T04:33:49.029Z,25.42
2022-11-17T04:36:17.429Z,25.37
2022-11-17T04:38:45.320Z,25.32
2022-11-17T04:41:31.542Z,25.24
2022-11-17T04:44:00.914Z,25.17
2022-11-17T04:46:29.145Z,25.08
2022-11-17T04:48:56.086Z,25.07
2022-11-17T04:51:22.911Z,25.00
2022-11-17T04:53:49.545Z,24.94
2022-11-17T04:56:16.238Z,24.88
2022-11-17T04:58:42.851Z,24.84
2022-11-17T05:01:17.453Z,24.78
2022-11-17T05:03:51.768Z,24.70
2022-11-17T05:06:23.465Z,24.63
2022-11-17T05:08:50.203Z,24.62
2022-11-17T05:11:36.126Z,24.55
2022-11-17T05:14:02.942Z,24.52
2022-11-17T05:16:48.159Z,24.46
2022-11-17T05:19:17.198Z,24.42
2022-11-17T05:21:43.945Z,24.35
2022-11-17T05:24:11.262Z,24.32
2022-11-17T05:26:38.079Z,24.27
2022-11-17T05:29:05.596Z,24.26
2022-11-17T05:31:32.305Z,24.20
2022-11-17T05:33:58.976Z,24.16
2022-11-17T05:36:26.015Z,24.12
2022-11-17T05:38:52.744Z,24.08
2022-11-17T05:41:19.624Z,24.06
2022-11-17T05:43:46.314Z,24.00
2022-11-17T05:46:12.935Z,23.98
2022-11-17T05:48:39.757Z,25.74
2022-11-17T05:51:06.346Z,28.29
2022-11-17T05:53:33.203Z,26.09
2022-11-17T05:56:09.146Z,25.22
2022-11-17T05:58:36.591Z,24.44
2022-11-17T06:01:03.403Z,24.85
2022-11-17T06:03:35.021Z,25.41
2022-11-17T06:06:01.819Z,24.67
2022-11-17T06:08:29.232Z,24.69
2022-11-17T06:10:56.034Z,24.17
2022-11-17T06:13:29.020Z,23.66
2022-11-17T06:15:55.778Z,24.06
2022-11-17T06:18:24.861Z,24.16
2022-11-17T06:20:53.465Z,24.47
2022-11-17T06:23:20.432Z,24.79
2022-11-17T06:25:47.032Z,24.23
2022-11-17T06:28:15.239Z,23.53
2022-11-17T06:30:42.030Z,24.12
2022-11-17T06:33:09.334Z,24.12
2022-11-17T06:35:35.904Z,24.03
2022-11-17T06:38:02.532Z,23.79
2022-11-17T06:40:29.100Z,23.92
2022-11-17T06:43:08.240Z,24.40
2022-11-17T06:45:39.732Z,24.44
2022-11-17T06:48:06.549Z,24.48
2022-11-17T06:50:33.353Z,24.70
2022-11-17T06:53:01.100Z,25.18
2022-11-17T06:55:27.930Z,26.16
2022-11-17T06:58:08.181Z,27.00
2022-11-17T07:00:36.249Z,27.46
2022-11-17T07:03:04.156Z,28.00
2022-11-17T07:05:34.652Z,28.45
2022-11-17T07:08:02.384Z,28.81
2022-11-17T07:10:29.223Z,29.15
2022-11-17T07:12:55.938Z,29.27
2022-11-17T07:15:22.976Z,29.18
2022-11-17T07:17:49.685Z,28.88
2022-11-17T07:20:16.886Z,27.94
2022-11-17T07:22:43.685Z,26.45
2022-11-17T07:25:10.577Z,25.03
2022-11-17T07:27:37.304Z,24.15
2022-11-17T07:30:04.942Z,23.82
2022-11-17T07:32:33.561Z,23.93
2022-11-17T07:35:02.091Z,24.07
2022-11-17T07:37:32.144Z,24.03
2022-11-17T07:40:51.029Z,24.16
2022-11-17T07:43:01.222Z,24.22
2022-11-17T07:45:31.811Z,24.41
2022-11-17T07:48:00.587Z,24.35
2022-11-17T07:50:27.771Z,24.35
2022-11-17T07:52:55.624Z,24.33
2022-11-17T07:55:22.405Z,24.24
2022-11-17T07:57:55.009Z,24.33
2022-11-17T08:00:21.691Z,24.21
2022-11-17T08:02:48.313Z,24.21
2022-11-17T08:05:17.386Z,24.19
2022-11-17T08:07:45.250Z,24.26
2022-11-17T08:10:13.024Z,24.27
2022-11-17T08:12:39.652Z,24.38
2022-11-17T08:15:07.126Z,23.08
2022-11-17T08:17:33.836Z,22.34
2022-11-17T08:20:00.531Z,22.54
2022-11-17T08:22:27.189Z,22.29
2022-11-17T08:24:53.799Z,22.33
2022-11-17T08:27:20.492Z,22.20
2022-11-17T08:29:47.165Z,22.99
2022-11-17T08:32:13.854Z,23.50
2022-11-17T08:34:40.494Z,23.72
2022-11-17T08:37:07.205Z,23.90
2022-11-17T08:39:33.844Z,23.94
2022-11-17T08:42:00.448Z,23.93
2022-11-17T08:44:27.085Z,23.94
2022-11-17T08:46:53.681Z,23.98
2022-11-17T08:49:20.294Z,24.01
2022-11-17T08:51:46.965Z,23.79
2022-11-17T08:54:16.316Z,23.81
2022-11-17T08:56:42.985Z,24.07
2022-11-17T08:59:12.323Z,24.04
2022-11-17T09:01:38.992Z,24.04
2022-11-17T09:04:05.901Z,24.05
2022-11-17T09:06:32.545Z,24.08
2022-11-17T09:09:00.314Z,24.07
2022-11-17T09:11:27.318Z,24.05
2022-11-17T09:13:53.984Z,23.93
2022-11-17T09:16:20.750Z,23.64
2022-11-17T09:18:47.373Z,23.50
2022-11-17T09:21:15.244Z,23.48
2022-11-17T09:23:42.052Z,23.34
2022-11-17T09:26:10.594Z,23.14
2022-11-17T09:28:37.768Z,23.09
2022-11-17T09:31:12.593Z,23.02
2022-11-17T09:33:39.456Z,22.96
2022-11-17T09:36:07.684Z,22.92
2022-11-17T09:38:35.629Z,22.49
2022-11-17T09:41:15.720Z,22.33
2022-11-17T09:43:57.301Z,22.12
2022-11-17T09:46:40.910Z,21.91
2022-11-17T09:49:28.941Z,21.83
2022-11-17T09:51:56.999Z,21.69
2022-11-17T09:54:26.105Z,21.78
2022-11-17T09:56:52.934Z,21.69
2022-11-17T09:59:20.120Z,21.89
2022-11-17T10:01:46.799Z,22.02
2022-11-17T10:04:16.740Z,22.38
2022-11-17T10:06:44.874Z,22.71
2022-11-17T10:09:41.898Z,22.96
2022-11-17T10:12:22.514Z,23.39
2022-11-17T10:14:49.352Z,23.76
2022-11-17T10:17:16.212Z,24.09
2022-11-17T10:19:45.133Z,24.39
2022-11-17T10:22:20.864Z,24.64
2022-11-17T10:24:52.268Z,25.09
2022-11-17T10:27:26.410Z,25.49
2022-11-17T10:30:23.578Z,25.89
2022-11-17T10:32:54.237Z,26.26
2022-11-17T10:35:25.674Z,26.09
2022-11-17T10:38:08.627Z,25.90
2022-11-17T10:41:03.054Z,25.75
2022-11-17T10:43:34.061Z,25.19
2022-11-17T10:46:04.395Z,24.42
2022-11-17T10:48:35.724Z,23.63
2022-11-17T10:51:03.417Z,23.17
2022-11-17T10:53:35.826Z,23.18
2022-11-17T10:56:07.544Z,23.32
2022-11-17T10:58:54.810Z,23.29
2022-11-17T11:01:35.508Z,23.35
2022-11-17T11:04:03.139Z,23.52
2022-11-17T11:06:30.692Z,23.67
2022-11-17T11:08:57.146Z,23.84
2022-11-17T11:11:49.299Z,24.20
2022-11-17T11:14:48.996Z,24.31
2022-11-17T11:17:16.638Z,24.59
2022-11-17T11:19:44.679Z,24.69
2022-11-17T11:22:38.283Z,24.67
2022-11-17T11:25:29.523Z,24.68
2022-11-17T11:28:12.799Z,25.01
2022-11-17T11:30:59.279Z,24.91
2022-11-17T11:33:29.413Z,24.83
2022-11-17T11:36:20.165Z,24.85
2022-11-17T11:38:57.247Z,24.79
2022-11-17T11:41:42.433Z,24.66
2022-11-17T11:44:21.145Z,24.66
2022-11-17T11:47:06.299Z,24.52
2022-11-17T11:49:54.257Z,24.65
2022-11-17T11:52:21.971Z,24.75
2022-11-17T11:54:56.929Z,24.85
2022-11-17T11:57:30.275Z,24.92
2022-11-17T12:00:05.109Z,24.86
2022-11-17T12:02:39.797Z,25.08
2022-11-17T12:05:13.304Z,25.17
2022-11-17T12:07:47.534Z,25.11
2022-11-17T12:10:34.440Z,24.97
2022-11-17T12:13:01.003Z,24.98
2022-11-17T12:15:27.560Z,25.25
2022-11-17T12:18:12.740Z,25.42
2022-11-17T12:20:43.567Z,25.21
2022-11-17T12:23:31.516Z,25.11
2022-11-17T12:25:58.433Z,25.26
2022-11-17T12:28:28.191Z,25.19
2022-11-17T12:31:05.087Z,25.32
2022-11-17T12:33:53.474Z,25.40
2022-11-17T12:36:33.407Z,25.46
2022-11-17T12:39:01.239Z,25.46
2022-11-17T12:41:54.844Z,25.50
2022-11-17T12:44:48.612Z,25.51
2022-11-17T12:47:20.656Z,25.50
2022-11-17T12:50:10.336Z,25.48
2022-11-17T12:53:14.813Z,25.46
2022-11-17T12:56:03.761Z,25.56
2022-11-17T12:58:51.688Z,25.58
2022-11-17T13:01:55.615Z,25.61
2022-11-17T13:04:28.316Z,25.65
2022-11-17T13:06:59.930Z,25.85
2022-11-17T13:09:27.756Z,25.67
2022-11-17T13:12:01.716Z,25.77
2022-11-17T13:14:28.308Z,25.82
2022-11-17T13:16:54.932Z,25.87
2022-11-17T13:19:38.636Z,25.79
2022-11-17T13:22:10.936Z,25.94
2022-11-17T13:24:38.841Z,25.92
2022-11-17T13:27:09.824Z,25.91
2022-11-17T13:29:36.449Z,26.03
2022-11-17T13:32:21.230Z,26.29
2022-11-17T13:34:51.672Z,26.55
2022-11-17T13:37:20.571Z,26.82
2022-11-17T13:40:17.441Z,27.16
2022-11-17T13:42:44.089Z,27.43
2022-11-17T13:45:13.977Z,27.91
2022-11-17T13:47:42.187Z,28.26
2022-11-17T13:50:21.551Z,28.58
2022-11-17T13:52:57.439Z,28.88
2022-11-17T13:55:24.366Z,29.25
2022-11-17T13:57:58.268Z,29.42
2022-11-17T14:00:25.323Z,29.27
2022-11-17T14:02:56.481Z,28.92
2022-11-17T14:05:25.418Z,28.64
2022-11-17T14:07:53.189Z,28.50
2022-11-17T14:10:19.779Z,28.07
2022-11-17T14:12:47.321Z,27.25
2022-11-17T14:15:15.608Z,26.62
2022-11-17T14:17:42.188Z,26.20
2022-11-17T14:20:20.334Z,25.49
2022-11-17T14:23:08.660Z,24.97
2022-11-17T14:25:36.270Z,25.15
2022-11-17T14:28:02.816Z,25.03
2022-11-17T14:30:29.436Z,25.65
2022-11-17T14:33:01.514Z,26.01
2022-11-17T14:35:32.473Z,26.25
2022-11-17T14:38:01.102Z,26.58
2022-11-17T14:40:27.714Z,26.79
2022-11-17T14:42:54.303Z,26.90
2022-11-17T14:45:20.920Z,27.11
2022-11-17T14:47:48.163Z,27.13
2022-11-17T14:50:18.935Z,27.01
2022-11-17T14:52:45.716Z,26.76
2022-11-17T14:55:13.205Z,26.61
2022-11-17T14:57:40.200Z,26.54
2022-11-17T15:00:08.083Z,26.65
2022-11-17T15:02:35.246Z,26.49
2022-11-17T15:05:02.047Z,26.41
2022-11-17T15:07:28.794Z,26.31
2022-11-17T15:09:55.400Z,26.25
2022-11-17T15:12:22.141Z,26.22
2022-11-17T15:14:48.763Z,26.20
2022-11-17T15:17:15.660Z,26.38
2022-11-17T15:19:42.523Z,26.37
2022-11-17T15:22:09.106Z,26.29
2022-11-17T15:24:35.706Z,26.27
2022-11-17T15:27:02.376Z,26.20
2022-11-17T15:29:29.006Z,26.15
2022-11-17T15:31:55.629Z,26.05
2022-11-17T15:34:22.223Z,26.06
2022-11-17T15:36:49.102Z,25.98
2022-11-17T15:39:15.949Z,25.93
2022-11-17T15:41:43.235Z,25.87
2022-11-17T15:44:09.905Z,25.83
2022-11-17T15:46:36.559Z,25.83
2022-11-17T15:49:03.156Z,25.77
2022-11-17T15:51:29.860Z,25.74
2022-11-17T15:53:57.725Z,25.70
2022-11-17T15:56:26.205Z,25.70
2022-11-17T15:59:03.010Z,25.68
2022-11-17T16:01:30.310Z,25.66
2022-11-17T16:04:01.578Z,25.63
2022-11-17T16:06:28.852Z,25.62
2022-11-17T16:08:55.561Z,25.61
2022-11-17T16:11:22.241Z,25.60
2022-11-17T16:13:48.842Z,25.62
2022-11-17T16:16:15.602Z,25.61
2022-11-17T16:18:42.772Z,25.63
2022-11-17T16:21:13.330Z,25.56
2022-11-17T16:23:47.163Z,25.56
2022-11-17T16:26:16.518Z,25.56
2022-11-17T16:28:43.209Z,25.57
2022-11-17T16:31:23.605Z,25.57
2022-11-17T16:33:54.662Z,25.50
2022-11-17T16:36:22.487Z,25.55
2022-11-17T16:39:01.923Z,25.51
2022-11-17T16:41:31.609Z,25.55
2022-11-17T16:43:58.210Z,25.52
2022-11-17T16:46:29.179Z,25.54
2022-11-17T16:48:56.067Z,25.55
2022-11-17T16:51:22.731Z,25.56
2022-11-17T16:54:01.187Z,25.55
2022-11-17T16:56:27.971Z,25.52
2022-11-17T16:58:54.866Z,25.58
2022-11-17T17:01:24.503Z,25.77
2022-11-17T17:03:58.317Z,25.95
2022-11-17T17:06:25.068Z,26.24
2022-11-17T17:08:55.810Z,26.57
2022-11-17T17:11:22.579Z,26.88
2022-11-17T17:13:49.212Z,27.18
2022-11-17T17:16:16.585Z,27.52
2022-11-17T17:18:43.206Z,27.85
2022-11-17T17:21:18.005Z,28.21
2022-11-17T17:23:45.639Z,28.54
2022-11-17T17:26:18.172Z,28.94
2022-11-17T17:28:49.004Z,29.17
2022-11-17T17:31:21.275Z,29.08
2022-11-17T17:33:48.495Z,28.71
2022-11-17T17:36:16.557Z,28.31
2022-11-17T17:38:44.416Z,27.95
2022-11-17T17:41:15.765Z,27.53
2022-11-17T17:43:42.636Z,26.86
2022-11-17T17:46:15.466Z,26.21
2022-11-17T17:48:43.418Z,25.77
2022-11-17T17:51:10.708Z,25.55
2022-11-17T17:53:39.890Z,25.52
2022-11-17T17:56:12.230Z,25.62
2022-11-17T17:58:42.192Z,25.74
2022-11-17T18:01:23.047Z,25.91
2022-11-17T18:03:50.278Z,26.01
2022-11-17T18:06:21.047Z,26.16
2022-11-17T18:08:48.015Z,26.21
2022-11-17T18:11:17.168Z,26.33
2022-11-17T18:13:46.123Z,26.40
2022-11-17T18:16:17.224Z,26.52
2022-11-17T18:18:45.650Z,26.58
2022-11-17T18:21:13.968Z,26.66
2022-11-17T18:23:40.650Z,26.66
2022-11-17T18:26:18.381Z,26.73
2022-11-17T18:28:58.976Z,26.75
2022-11-17T18:31:27.388Z,26.83
2022-11-17T18:34:05.217Z,26.83
2022-11-17T18:36:31.931Z,26.85
2022-11-17T18:38:58.782Z,26.83
2022-11-17T18:41:25.767Z,26.84
2022-11-17T18:43:52.523Z,26.82
2022-11-17T18:46:21.452Z,26.82
2022-11-17T18:48:48.978Z,26.81
2022-11-17T18:51:19.919Z,26.83
2022-11-17T18:53:47.614Z,26.79
2022-11-17T18:56:15.488Z,26.79
2022-11-17T18:58:42.461Z,26.65
2022-11-17T19:01:28.149Z,26.49
2022-11-17T19:03:55.635Z,26.40
2022-11-17T19:06:23.238Z,26.28
2022-11-17T19:08:50.011Z,26.14
2022-11-17T19:11:17.439Z,26.08
2022-11-17T19:13:44.290Z,26.02
2022-11-17T19:16:14.927Z,25.94
2022-11-17T19:18:41.711Z,25.91
2022-11-17T19:21:13.627Z,25.78
2022-11-17T19:23:41.849Z,25.74
2022-11-17T19:26:13.841Z,25.70
2022-11-17T19:28:40.575Z,25.62
2022-11-17T19:31:11.644Z,25.60
2022-11-17T19:33:38.988Z,25.51
2022-11-17T19:36:07.834Z,25.50
2022-11-17T19:38:34.918Z,25.50
2022-11-17T19:41:05.243Z,25.45
2022-11-17T19:43:33.119Z,25.49
2022-11-17T19:46:00.611Z,25.44
2022-11-17T19:48:28.304Z,25.48
2022-11-17T19:50:56.096Z,25.48
2022-11-17T19:53:22.996Z,25.45
2022-11-17T19:55:49.734Z,25.44
2022-11-17T19:58:17.409Z,25.40
2022-11-17T20:00:46.073Z,25.43
2022-11-17T20:03:13.085Z,25.60
2022-11-17T20:05:39.772Z,25.84
2022-11-17T20:08:06.485Z,26.07
2022-11-17T20:10:33.357Z,26.34
2022-11-17T20:13:00.306Z,26.62
2022-11-17T20:15:36.200Z,26.95
2022-11-17T20:18:02.781Z,27.27
2022-11-17T20:20:29.431Z,27.61
2022-11-17T20:22:56.002Z,27.92
2022-11-17T20:25:22.587Z,28.25
2022-11-17T20:27:49.200Z,28.55
2022-11-17T20:30:16.152Z,28.86
2022-11-17T20:32:42.732Z,29.17
2022-11-17T20:35:09.405Z,29.48
2022-11-17T20:37:36.035Z,29.97
2022-11-17T20:40:02.674Z,30.30
2022-11-17T20:42:29.295Z,30.73
2022-11-17T20:44:55.974Z,31.09
2022-11-17T20:47:27.405Z,31.44
2022-11-17T20:49:55.223Z,31.77
2022-11-17T20:52:21.822Z,31.96
2022-11-17T20:54:48.409Z,32.31
2022-11-17T20:57:14.965Z,32.59
2022-11-17T20:59:41.569Z,32.85
2022-11-17T21:02:09.572Z,33.13
2022-11-17T21:04:36.196Z,33.35
2022-11-17T21:07:02.905Z,33.60
2022-11-17T21:09:29.587Z,33.77
2022-11-17T21:11:58.961Z,33.97
2022-11-17T21:14:26.577Z,34.14
2022-11-17T21:16:53.726Z,34.25
2022-11-17T21:19:23.438Z,34.45
2022-11-17T21:21:53.546Z,34.59
2022-11-17T21:24:21.764Z,34.73
2022-11-17T21:26:50.483Z,34.96
2022-11-17T21:29:17.148Z,35.26
2022-11-17T21:31:43.765Z,35.33
2022-11-17T21:34:16.827Z,35.51
2022-11-17T21:36:43.484Z,35.63
2022-11-17T21:39:16.459Z,35.83
2022-11-17T21:41:43.431Z,36.02
2022-11-17T21:44:10.859Z,36.06
2022-11-17T21:46:37.461Z,36.19
2022-11-17T21:49:04.115Z,36.25
2022-11-17T21:51:33.523Z,36.35
2022-11-17T21:54:01.809Z,36.43
2022-11-17T21:56:28.504Z,36.54
2022-11-17T21:59:19.205Z,36.57
2022-11-17T22:01:46.078Z,36.71
2022-11-17T22:04:13.193Z,36.76
2022-11-17T22:06:39.809Z,36.92
2022-11-17T22:09:06.428Z,37.08
2022-11-17T22:11:36.682Z,37.20
2022-11-17T22:14:23.897Z,37.42
2022-11-17T22:16:52.110Z,37.53
2022-11-17T22:19:20.052Z,37.70
2022-11-17T22:21:53.919Z,37.84
2022-11-17T22:24:21.313Z,38.02
2022-11-17T22:26:49.617Z,38.09
2022-11-17T22:29:20.580Z,38.23
2022-11-17T22:31:48.619Z,38.25
2022-11-17T22:34:15.655Z,38.41
2022-11-17T22:36:42.355Z,38.46
2022-11-17T22:39:09.444Z,38.59
2022-11-17T22:41:36.134Z,38.76
2022-11-17T22:44:02.780Z,38.79
2022-11-17T22:46:29.596Z,38.88
2022-11-17T22:48:56.260Z,38.92
2022-11-17T22:51:41.495Z,39.08
2022-11-17T22:54:08.572Z,39.11
2022-11-17T22:56:35.278Z,39.18
2022-11-17T22:59:01.919Z,39.29
2022-11-17T23:01:28.557Z,39.38
2022-11-17T23:03:55.168Z,39.44
2022-11-17T23:06:22.967Z,39.54
2022-11-17T23:08:49.887Z,39.62
2022-11-17T23:11:35.950Z,39.71
2022-11-17T23:14:03.255Z,39.77
2022-11-17T23:16:30.220Z,39.86
2022-11-17T23:18:57.179Z,39.91
2022-11-17T23:21:23.806Z,39.97
2022-11-17T23:23:50.451Z,39.97
2022-11-17T23:26:17.009Z,39.98
2022-11-17T23:28:43.663Z,40.12
2022-11-17T23:31:14.461Z,40.16
2022-11-17T23:33:42.871Z,40.25
2022-11-17T23:36:14.154Z,40.29
2022-11-17T23:38:40.718Z,40.30
2022-11-17T23:41:08.611Z,40.43
2022-11-17T23:43:35.215Z,40.46
2022-11-17T23:46:06.194Z,40.49
2022-11-17T23:48:32.841Z,40.58
2022-11-17T23:51:00.140Z,40.63
2022-11-17T23:53:26.992Z,40.66
2022-11-17T23:55:54.616Z,40.71
2022-11-17T23:58:21.220Z,40.70
